createdAt,value
2023-03-14T00:00:38.037Z,3.90
2023-03-14T00:04:01.547Z,3.60
2023-03-14T00:07:25.394Z,3.80
2023-03-14T00:14:10.580Z,3.80
2023-03-14T00:17:34.706Z,3.60
2023-03-14T00:21:00.416Z,3.70
2023-03-14T00:24:24.101Z,3.70
2023-03-14T00:27:47.105Z,3.50
2023-03-14T00:31:14.050Z,4.20
2023-03-14T00:34:38.332Z,3.50
2023-03-14T00:38:02.077Z,4.00
2023-03-14T00:41:25.858Z,3.70
2023-03-14T00:44:49.475Z,3.30
2023-03-14T00:48:13.838Z,3.90
2023-03-14T00:51:37.360Z,3.30
2023-03-14T00:55:01.577Z,3.40
2023-03-14T00:58:24.847Z,3.30
2023-03-14T01:01:48.249Z,4.00
2023-03-14T01:05:11.451Z,3.70
2023-03-14T01:08:34.993Z,3.50
2023-03-14T01:11:58.418Z,3.40
2023-03-14T01:15:22.548Z,3.20
2023-03-14T01:18:47.156Z,3.90
2023-03-14T01:22:10.616Z,2.80
2023-03-14T01:25:35.103Z,3.50
2023-03-14T01:32:22.059Z,2.70
2023-03-14T01:35:45.340Z,2.90
2023-03-14T01:39:10.353Z,3.00
2023-03-14T01:42:34.330Z,3.00
2023-03-14T01:46:19.327Z,3.30
2023-03-14T01:49:43.190Z,3.50
2023-03-14T01:53:07.163Z,3.30
2023-03-14T01:56:31.891Z,3.20
2023-03-14T02:00:00.907Z,3.40
2023-03-14T02:03:26.191Z,3.20
2023-03-14T02:06:54.088Z,2.70
2023-03-14T02:10:25.265Z,2.90
2023-03-14T02:13:49.572Z,3.00
2023-03-14T02:17:44.143Z,2.90
2023-03-14T02:21:28.399Z,2.70
2023-03-14T02:25:03.603Z,2.30
2023-03-14T02:28:27.236Z,2.60
2023-03-14T02:31:55.277Z,3.40
2023-03-14T02:35:23.347Z,2.50
2023-03-14T02:38:54.991Z,2.50
2023-03-14T02:42:21.793Z,2.70
2023-03-14T02:45:47.848Z,2.10
2023-03-14T02:49:16.066Z,2.40
2023-03-14T02:52:39.500Z,2.10
2023-03-14T02:56:04.476Z,2.30
2023-03-14T02:59:28.976Z,1.90
2023-03-14T03:02:56.263Z,2.00
2023-03-14T03:06:19.461Z,1.80
2023-03-14T03:09:43.050Z,2.00
2023-03-14T03:16:28.914Z,1.80
2023-03-14T03:19:52.658Z,1.30
2023-03-14T03:23:16.583Z,1.20
2023-03-14T03:26:40.097Z,1.70
2023-03-14T03:30:06.417Z,1.30
2023-03-14T03:33:30.300Z,1.50
2023-03-14T03:36:53.536Z,1.40
2023-03-14T03:40:23.186Z,1.00
2023-03-14T03:43:48.910Z,1.80
2023-03-14T03:47:13.714Z,1.40
2023-03-14T03:50:37.376Z,1.40
2023-03-14T03:57:30.091Z,1.70
2023-03-14T04:00:53.493Z,1.40
2023-03-14T04:04:17.223Z,1.30
2023-03-14T04:07:40.933Z,1.10
2023-03-14T04:11:06.154Z,1.20
2023-03-14T04:18:16.869Z,1.50
2023-03-14T04:21:41.277Z,1.60
2023-03-14T04:25:09.248Z,1.50
2023-03-14T04:28:39.948Z,1.60
2023-03-14T04:32:04.090Z,1.40
2023-03-14T04:35:28.528Z,1.30
2023-03-14T04:38:56.050Z,1.40
2023-03-14T04:42:21.255Z,1.60
2023-03-14T04:45:45.565Z,1.90
2023-03-14T04:49:09.664Z,1.70
2023-03-14T04:52:32.893Z,2.00
2023-03-14T04:56:00.740Z,2.40
2023-03-14T04:59:31.978Z,2.60
2023-03-14T05:03:02.115Z,2.40
2023-03-14T05:06:51.991Z,2.40
2023-03-14T05:10:36.213Z,2.20
2023-03-14T05:14:23.375Z,2.20
2023-03-14T05:18:16.131Z,2.10
2023-03-14T05:21:54.592Z,2.40
2023-03-14T05:25:23.937Z,3.10
2023-03-14T05:29:07.260Z,2.30
2023-03-14T05:32:48.703Z,3.10
2023-03-14T05:36:21.601Z,3.60
2023-03-14T05:40:15.490Z,3.60
2023-03-14T05:43:54.300Z,3.10
2023-03-14T05:47:46.950Z,3.50
2023-03-14T05:51:20.568Z,3.00
2023-03-14T05:55:02.682Z,3.10
2023-03-14T05:59:04.039Z,3.40
2023-03-14T06:02:35.101Z,3.40
2023-03-14T06:06:02.040Z,3.10
2023-03-14T06:09:26.458Z,3.20
2023-03-14T06:12:51.416Z,3.00
2023-03-14T06:16:15.838Z,3.20
2023-03-14T06:19:39.538Z,3.10
2023-03-14T06:23:03.501Z,3.10
2023-03-14T06:26:28.385Z,3.40
2023-03-14T06:29:51.813Z,3.10
2023-03-14T06:33:15.420Z,3.70
2023-03-14T06:36:39.372Z,3.90
2023-03-14T06:40:03.409Z,4.20
2023-03-14T06:43:42.649Z,3.90
2023-03-14T06:47:07.118Z,4.10
2023-03-14T06:50:31.774Z,3.60
2023-03-14T06:53:55.768Z,3.80
2023-03-14T06:57:20.750Z,3.30
2023-03-14T07:00:46.194Z,3.50
2023-03-14T07:04:14.360Z,4.70
2023-03-14T07:07:41.301Z,3.60
2023-03-14T07:11:05.295Z,3.50
2023-03-14T07:14:31.430Z,3.60
2023-03-14T07:17:55.214Z,3.80
2023-03-14T07:21:19.367Z,3.30
2023-03-14T07:24:42.954Z,3.70
2023-03-14T07:28:07.003Z,3.70
2023-03-14T07:31:31.141Z,4.10
2023-03-14T07:34:54.908Z,3.80
2023-03-14T07:38:21.604Z,4.00
2023-03-14T07:42:05.086Z,3.30
2023-03-14T07:45:46.288Z,3.20
2023-03-14T07:49:09.868Z,3.70
2023-03-14T07:55:56.169Z,3.90
2023-03-14T07:59:19.747Z,3.80
2023-03-14T08:02:43.579Z,4.10
2023-03-14T08:06:10.472Z,3.90
2023-03-14T08:09:33.665Z,4.20
2023-03-14T08:12:59.064Z,3.70
2023-03-14T08:16:22.443Z,4.30
2023-03-14T08:19:45.940Z,3.60
2023-03-14T08:23:09.617Z,4.10
2023-03-14T08:26:33.146Z,4.00
2023-03-14T08:29:56.623Z,3.90
2023-03-14T08:33:20.235Z,6.10
2023-03-14T08:36:43.664Z,3.90
2023-03-14T08:40:12.230Z,3.80
2023-03-14T08:43:38.626Z,3.40
2023-03-14T08:47:03.001Z,4.20
2023-03-14T08:50:27.248Z,4.40
2023-03-14T08:53:50.919Z,3.90
2023-03-14T08:57:14.563Z,4.40
2023-03-14T09:00:38.779Z,3.60
2023-03-14T09:04:02.267Z,4.20
2023-03-14T09:07:26.069Z,4.30
2023-03-14T09:10:49.682Z,4.60
2023-03-14T09:14:14.363Z,3.90
2023-03-14T09:17:37.750Z,3.40
2023-03-14T09:21:01.793Z,3.60
2023-03-14T09:24:25.086Z,4.00
2023-03-14T09:27:48.889Z,4.00
2023-03-14T09:31:15.281Z,3.50
2023-03-14T09:34:38.547Z,3.90
2023-03-14T09:38:02.029Z,3.50
2023-03-14T09:44:57.565Z,3.60
2023-03-14T09:48:27.481Z,3.10
2023-03-14T09:51:54.452Z,3.50
2023-03-14T09:55:22.247Z,3.40
2023-03-14T09:58:50.951Z,6.50
2023-03-14T10:02:18.606Z,2.80
2023-03-14T10:05:45.384Z,2.90
2023-03-14T10:09:13.666Z,3.00
2023-03-14T10:12:39.481Z,3.00
2023-03-14T10:16:06.757Z,2.40
2023-03-14T10:19:30.236Z,2.30
2023-03-14T10:22:53.612Z,3.50
2023-03-14T10:26:19.014Z,3.00
2023-03-14T10:29:57.117Z,2.60
2023-03-14T10:33:25.160Z,2.10
2023-03-14T10:36:53.029Z,1.90
2023-03-14T10:40:19.344Z,3.00
2023-03-14T10:43:43.363Z,1.90
2023-03-14T10:47:07.005Z,3.10
2023-03-14T10:53:59.886Z,3.40
2023-03-14T10:57:23.462Z,3.50
2023-03-14T11:00:51.610Z,1.80
2023-03-14T11:04:32.422Z,2.80
2023-03-14T11:08:04.055Z,2.90
